createdAt,value
2022-11-23T14:06:28.575Z,28.10
2022-11-23T14:09:08.633Z,28.70
2022-11-23T14:11:51.212Z,27.60
2022-11-23T14:17:09.177Z,26.80
2022-11-23T14:20:19.464Z,26.80
2022-11-23T14:23:29.830Z,27.00
2022-11-23T14:26:32.396Z,27.20
2022-11-23T14:29:38.007Z,26.60
2022-11-23T14:32:16.133Z,27.50
2022-11-23T14:34:53.719Z,26.80
2022-11-23T14:38:00.124Z,28.50
2022-11-23T14:40:38.187Z,28.60
2022-11-23T14:43:14.112Z,30.00
2022-11-23T14:45:43.385Z,27.90
2022-11-23T14:48:33.366Z,27.70
2022-11-23T14:51:11.484Z,27.50
2022-11-23T14:53:46.717Z,28.50
2022-11-23T14:56:27.859Z,29.20
2022-11-23T14:59:02.653Z,28.90
2022-11-23T15:01:31.560Z,26.70
2022-11-23T15:04:07.675Z,25.20
2022-11-23T15:06:45.487Z,26.10
2022-11-23T15:09:28.124Z,25.60
2022-11-23T15:12:26.644Z,25.20
2022-11-23T15:14:59.720Z,25.50
2022-11-23T15:17:28.190Z,24.70
2022-11-23T15:19:58.612Z,24.60
2022-11-23T15:22:28.309Z,25.10
2022-11-23T15:25:08.462Z,23.70
2022-11-23T15:27:40.950Z,23.20
2022-11-23T15:30:27.147Z,25.70
2022-11-23T15:33:01.220Z,25.70
2022-11-23T15:35:38.216Z,25.70
2022-11-23T15:38:19.070Z,25.40
2022-11-23T15:40:51.487Z,24.80
2022-11-23T15:43:20.371Z,25.00
2022-11-23T15:45:48.582Z,24.60
2022-11-23T15:48:27.165Z,26.00
2022-11-23T15:51:00.302Z,25.10
2022-11-23T15:53:32.143Z,25.70
2022-11-23T15:56:03.945Z,24.90
2022-11-23T15:58:34.213Z,25.80
2022-11-23T16:01:14.367Z,26.00
2022-11-23T16:04:01.043Z,26.80
2022-11-23T16:06:42.458Z,27.30
2022-11-23T16:09:51.673Z,26.00
2022-11-23T16:12:33.713Z,27.40
2022-11-23T16:15:41.760Z,27.20
2022-11-23T16:18:13.785Z,26.50
2022-11-23T16:21:14.101Z,26.50
2022-11-23T16:23:45.843Z,27.30
2022-11-23T16:26:14.723Z,27.00
2022-11-23T16:28:57.322Z,26.50
2022-11-23T16:31:42.607Z,27.80
2022-11-23T16:34:18.259Z,27.90
2022-11-23T16:36:47.236Z,28.60
2022-11-23T16:39:15.553Z,29.30
2022-11-23T16:41:43.913Z,29.50
2022-11-23T16:44:12.787Z,28.00
2022-11-23T16:46:43.761Z,27.50
2022-11-23T16:49:17.737Z,28.30
2022-11-23T16:51:56.228Z,28.60
2022-11-23T16:54:25.900Z,29.70
2022-11-23T16:56:54.162Z,29.10
2022-11-23T16:59:23.870Z,27.50
2022-11-23T17:01:56.912Z,28.90
2022-11-23T17:04:26.694Z,29.20
2022-11-23T17:06:55.764Z,29.30
2022-11-23T17:09:23.978Z,27.80
2022-11-23T17:11:52.359Z,29.30
2022-11-23T17:14:28.068Z,26.50
2022-11-23T17:17:02.076Z,29.10
2022-11-23T17:19:31.389Z,30.00
2022-11-23T17:21:59.837Z,29.80
2022-11-23T17:24:28.298Z,29.80
2022-11-23T17:26:56.867Z,30.60
2022-11-23T17:29:25.318Z,30.50
2022-11-23T17:31:53.968Z,30.00
2022-11-23T17:34:22.539Z,30.60
2022-11-23T17:36:52.259Z,30.70
2022-11-23T17:39:25.642Z,32.10
2022-11-23T17:41:53.972Z,31.90
2022-11-23T17:44:22.157Z,29.50
2022-11-23T17:46:54.748Z,31.50
2022-11-23T17:51:57.269Z,29.50
2022-11-23T17:54:26.095Z,33.30
2022-11-23T17:56:54.627Z,32.30
2022-11-23T17:59:23.337Z,31.00
2022-11-23T18:01:51.898Z,32.70
2022-11-23T18:04:20.517Z,31.30
2022-11-23T18:06:48.729Z,31.00
2022-11-23T18:09:17.263Z,30.10
2022-11-23T18:11:45.837Z,32.80
2022-11-23T18:14:14.357Z,31.30
2022-11-23T18:16:42.795Z,31.80
2022-11-23T18:19:12.124Z,31.50
2022-11-23T18:21:40.969Z,32.10
2022-11-23T18:24:09.194Z,30.90
2022-11-23T18:26:38.057Z,31.10
2022-11-23T18:29:06.534Z,30.40
2022-11-23T18:31:35.075Z,31.50
2022-11-23T18:34:05.253Z,31.10
2022-11-23T18:36:33.403Z,28.70
2022-11-23T18:39:21.036Z,30.70
2022-11-23T18:41:49.224Z,33.00
2022-11-23T18:44:17.372Z,31.70
2022-11-23T18:46:46.175Z,30.40
2022-11-23T18:49:14.412Z,31.60
2022-11-23T18:51:42.719Z,30.20
2022-11-23T18:54:11.636Z,32.10
2022-11-23T18:56:39.957Z,30.90
2022-11-23T18:59:19.177Z,32.70
2022-11-23T19:01:57.857Z,32.90
2022-11-23T19:04:26.512Z,30.90
2022-11-23T19:06:54.638Z,32.30
2022-11-23T19:09:23.645Z,32.90
2022-11-23T19:11:51.885Z,33.50
2022-11-23T19:14:20.076Z,33.50
2022-11-23T19:16:48.867Z,33.70
2022-11-23T19:19:18.632Z,33.10
2022-11-23T19:21:47.252Z,32.50
2022-11-23T19:24:15.604Z,32.60
2022-11-23T19:26:45.001Z,32.30
2022-11-23T19:29:13.958Z,30.00
2022-11-23T19:31:42.544Z,30.70
2022-11-23T19:34:11.033Z,32.50
2022-11-23T19:36:40.794Z,30.40
2022-11-23T19:39:10.381Z,30.40
2022-11-23T19:41:38.925Z,30.30
2022-11-23T19:44:09.350Z,29.40
2022-11-23T19:46:37.921Z,28.30
2022-11-23T19:49:08.394Z,26.80
2022-11-23T19:51:37.047Z,26.50
2022-11-23T19:54:06.915Z,28.60
2022-11-23T19:56:37.341Z,27.80
2022-11-23T19:59:06.449Z,28.10
2022-11-23T20:01:36.612Z,26.80
2022-11-23T20:04:09.141Z,26.10
2022-11-23T20:06:42.740Z,25.40
2022-11-23T20:09:16.856Z,25.40
2022-11-23T20:11:50.372Z,25.60
2022-11-23T20:14:19.890Z,26.80
2022-11-23T20:16:48.624Z,26.00
2022-11-23T20:19:17.267Z,26.40
2022-11-23T20:21:45.787Z,26.80
2022-11-23T20:24:15.700Z,29.40
2022-11-23T20:26:43.978Z,27.70
2022-11-23T20:29:13.849Z,26.00
2022-11-23T20:31:42.997Z,26.80
2022-11-23T20:34:16.704Z,26.10
2022-11-23T20:36:47.196Z,24.50
2022-11-23T20:39:16.227Z,28.20
2022-11-23T20:41:45.201Z,24.70
2022-11-23T20:44:15.043Z,25.10
2022-11-23T20:49:32.832Z,25.90
2022-11-23T20:52:02.260Z,24.10
2022-11-23T20:54:30.913Z,24.50
2022-11-23T20:57:00.733Z,24.80
2022-11-23T20:59:29.295Z,25.00
2022-11-23T21:01:57.620Z,25.40
2022-11-23T21:04:26.702Z,25.60
2022-11-23T21:06:55.151Z,26.80
2022-11-23T21:09:23.743Z,26.80
2022-11-23T21:12:11.182Z,27.40
2022-11-23T21:14:39.576Z,27.80
2022-11-23T21:17:08.109Z,27.20
2022-11-23T21:19:42.202Z,26.70
2022-11-23T21:22:12.843Z,25.60
2022-11-23T21:24:41.516Z,26.60
2022-11-23T21:27:13.169Z,26.60
2022-11-23T21:29:44.037Z,25.70
2022-11-23T21:32:15.227Z,26.70
2022-11-23T21:34:43.611Z,25.00
2022-11-23T21:37:12.744Z,26.00
2022-11-23T21:39:42.225Z,25.00
2022-11-23T21:42:11.187Z,26.00
2022-11-23T21:44:39.406Z,25.00
2022-11-23T21:47:08.008Z,26.60
2022-11-23T21:49:36.369Z,25.40
2022-11-23T21:52:04.763Z,26.60
2022-11-23T21:54:33.448Z,25.10
2022-11-23T21:57:01.948Z,25.70
2022-11-23T21:59:30.329Z,25.50
2022-11-23T22:02:00.741Z,28.40
2022-11-23T22:04:29.032Z,26.70
2022-11-23T22:06:57.591Z,26.30
2022-11-23T22:09:26.776Z,24.50
2022-11-23T22:11:54.994Z,25.80
2022-11-23T22:14:23.460Z,25.70
2022-11-23T22:16:54.059Z,24.70
2022-11-23T22:19:22.424Z,25.40
2022-11-23T22:21:50.847Z,26.00
2022-11-23T22:24:21.556Z,25.70
2022-11-23T22:26:50.062Z,26.60
2022-11-23T22:29:18.568Z,26.80
2022-11-23T22:31:47.276Z,26.40
2022-11-23T22:34:15.620Z,24.30
2022-11-23T22:36:43.939Z,26.90
2022-11-23T22:39:12.757Z,25.60
2022-11-23T22:41:41.240Z,25.20
2022-11-23T22:44:10.859Z,27.90
2022-11-23T22:46:40.337Z,26.10
2022-11-23T22:49:08.596Z,26.50
2022-11-23T22:51:36.970Z,28.70
2022-11-23T22:54:05.791Z,25.90
2022-11-23T22:56:34.345Z,27.80
2022-11-23T22:59:02.657Z,27.70
2022-11-23T23:01:32.067Z,26.20
2022-11-23T23:04:02.582Z,28.50
2022-11-23T23:06:36.681Z,27.70
2022-11-23T23:09:07.144Z,28.10
2022-11-23T23:11:36.641Z,25.70
2022-11-23T23:14:06.433Z,28.70
2022-11-23T23:16:35.260Z,28.80
2022-11-23T23:19:04.265Z,28.20
2022-11-23T23:21:32.869Z,26.20
2022-11-23T23:24:01.499Z,26.50
2022-11-23T23:26:30.591Z,27.00
2022-11-23T23:29:00.995Z,27.30
2022-11-23T23:31:30.176Z,27.10
2022-11-23T23:33:59.665Z,27.60
2022-11-23T23:36:28.823Z,25.60
2022-11-23T23:38:57.975Z,26.30
2022-11-23T23:41:26.296Z,26.30
2022-11-23T23:43:54.841Z,26.80
2022-11-23T23:46:23.174Z,25.10
2022-11-23T23:48:51.891Z,26.50
2022-11-23T23:51:24.909Z,25.90
2022-11-23T23:53:53.415Z,25.10
2022-11-23T23:56:27.695Z,26.00
2022-11-23T23:58:57.960Z,26.90
